PWSweather.com
Personal Weather Stations
Station Observations

Acton, CA 93510

Lat: 34.47703, Lon: -118.17483

Elevation: 2900

Station Type: Davis Vantage Pro 2

http://www.actonastro.com/weather/current.php

Latest ConditionsUpdated 4:59:08 AM PDT Thursday, Sep 21, 2017
Currently Today's Max Today's Min Today's Average
Temperature 56.6°F13.7°C 58.6°F14.8°C 56.6°F13.7°C 57.5°F14.2°C
Dew Point 50.5°F10.3°C 52.9°F11.6°C 50.5°F10.3°C 51.0°F10.6°C
Winds 3.0 mph WSW4.8 kmh WSW 9.0 mph W14.5 kmh W - 2.7 mph 4.3 kmh
Wind Gusts 6.0 mph9.7 kmh 13.0 mph20.9 kmh - -
Humidity 80% 83% 77% 79%
Pressure 29.59 in1002.0 mb 29.64 in1003.7 mb 29.59 in1002.0 mb -
Hour Temp Dew Point Humidity Winds Wind Gusts Pressure Precip Precip Rate Daily Precip Total
04:59 AM 56.6°F13.7°C 50.5°F10.3°C 80% 3.0 mph WSW4.8 kmh WSW 6.0 mph9.7 kmh 29.59 in1002.0 mb 0.00 in0.0 mm 0.00 in0.0 mm 0.00 in0.0 mm
04:54 AM 56.6°F13.7°C 50.5°F10.3°C 80% 2.0 mph SW3.2 kmh SW 5.0 mph8.0 kmh 29.59 in1002.0 mb 0.00 in0.0 mm 0.00 in0.0 mm 0.00 in0.0 mm
04:49 AM 56.7°F13.7°C 50.6°F10.3°C 80% Calm Calm 5.0 mph8.0 kmh 29.59 in1002.0 mb 0.00 in0.0 mm 0.00 in0.0 mm 0.00 in0.0 mm
04:44 AM 56.7°F13.7°C 50.6°F10.3°C 80% 4.0 mph NW6.4 kmh NW 6.0 mph9.7 kmh 29.59 in1002.0 mb 0.00 in0.0 mm 0.00 in0.0 mm 0.00 in0.0 mm
04:39 AM 56.9°F13.8°C 50.8°F10.4°C 80% Calm Calm 6.0 mph9.7 kmh 29.60 in1002.4 mb 0.00 in0.0 mm 0.00 in0.0 mm 0.00 in0.0 mm
04:34 AM 56.9°F13.8°C 50.8°F10.4°C 80% Calm Calm 7.0 mph11.3 kmh 29.60 in1002.4 mb 0.00 in0.0 mm 0.00 in0.0 mm 0.00 in0.0 mm
04:29 AM 57.0°F13.9°C 50.9°F10.5°C 80% 1.0 mph NW1.6 kmh NW 7.0 mph11.3 kmh 29.60 in1002.4 mb 0.00 in0.0 mm 0.00 in0.0 mm 0.00 in0.0 mm
04:24 AM 57.0°F13.9°C 50.9°F10.5°C 80% 4.0 mph W6.4 kmh W 9.0 mph14.5 kmh 29.60 in1002.4 mb 0.00 in0.0 mm 0.00 in0.0 mm 0.00 in0.0 mm
04:19 AM 56.9°F13.8°C 50.8°F10.4°C 80% 7.0 mph W11.3 kmh W 9.0 mph14.5 kmh 29.60 in1002.4 mb 0.00 in0.0 mm 0.00 in0.0 mm 0.00 in0.0 mm
04:14 AM 57.0°F13.9°C 50.9°F10.5°C 80% 4.0 mph WNW6.4 kmh WNW 11.0 mph17.7 kmh 29.60 in1002.4 mb 0.00 in0.0 mm 0.00 in0.0 mm 0.00 in0.0 mm
04:09 AM 57.0°F13.9°C 50.9°F10.5°C 80% Calm Calm 11.0 mph17.7 kmh 29.59 in1002.0 mb 0.00 in0.0 mm 0.00 in0.0 mm 0.00 in0.0 mm
04:04 AM 57.2°F14.0°C 51.1°F10.6°C 80% 2.0 mph NW3.2 kmh NW 11.0 mph17.7 kmh 29.59 in1002.0 mb 0.00 in0.0 mm 0.00 in0.0 mm 0.00 in0.0 mm
03:59 AM 57.2°F14.0°C 51.1°F10.6°C 80% 2.0 mph WSW3.2 kmh WSW 11.0 mph17.7 kmh 29.59 in1002.0 mb 0.00 in0.0 mm 0.00 in0.0 mm 0.00 in0.0 mm
03:54 AM 57.2°F14.0°C 51.1°F10.6°C 80% 4.0 mph WNW6.4 kmh WNW 10.0 mph16.1 kmh 29.59 in1002.0 mb 0.00 in0.0 mm 0.00 in0.0 mm 0.00 in0.0 mm
03:49 AM 57.2°F14.0°C 51.1°F10.6°C 80% 5.0 mph NW8.0 kmh NW 10.0 mph16.1 kmh 29.59 in1002.0 mb 0.00 in0.0 mm 0.00 in0.0 mm 0.00 in0.0 mm
03:44 AM 57.0°F13.9°C 50.9°F10.5°C 80% Calm Calm 10.0 mph16.1 kmh 29.59 in1002.0 mb 0.00 in0.0 mm 0.00 in0.0 mm 0.00 in0.0 mm
03:39 AM 57.2°F14.0°C 51.1°F10.6°C 80% 1.0 mph W1.6 kmh W 9.0 mph14.5 kmh 29.59 in1002.0 mb 0.00 in0.0 mm 0.00 in0.0 mm 0.00 in0.0 mm
03:34 AM 57.2°F14.0°C 51.1°F10.6°C 80% 6.0 mph NW9.7 kmh NW 9.0 mph14.5 kmh 29.59 in1002.0 mb 0.00 in0.0 mm 0.00 in0.0 mm 0.00 in0.0 mm
03:29 AM 57.2°F14.0°C 51.1°F10.6°C 80% 4.0 mph W6.4 kmh W 7.0 mph11.3 kmh 29.60 in1002.4 mb 0.00 in0.0 mm 0.00 in0.0 mm 0.00 in0.0 mm
03:24 AM 57.2°F14.0°C 51.1°F10.6°C 80% Calm Calm 6.0 mph9.7 kmh 29.60 in1002.4 mb 0.00 in0.0 mm 0.00 in0.0 mm 0.00 in0.0 mm
03:19 AM 57.2°F14.0°C 51.1°F10.6°C 80% Calm Calm 6.0 mph9.7 kmh 29.60 in1002.4 mb 0.00 in0.0 mm 0.00 in0.0 mm 0.00 in0.0 mm
03:14 AM 57.2°F14.0°C 51.1°F10.6°C 80% Calm Calm 6.0 mph9.7 kmh 29.60 in1002.4 mb 0.00 in0.0 mm 0.00 in0.0 mm 0.00 in0.0 mm
03:09 AM 57.3°F14.1°C 51.2°F10.7°C 80% 1.0 mph W1.6 kmh W 4.0 mph6.4 kmh 29.60 in1002.4 mb 0.00 in0.0 mm 0.00 in0.0 mm 0.00 in0.0 mm
03:04 AM 57.3°F14.1°C 51.2°F10.7°C 80% Calm Calm 5.0 mph8.0 kmh 29.60 in1002.4 mb 0.00 in0.0 mm 0.00 in0.0 mm 0.00 in0.0 mm
02:59 AM 57.3°F14.1°C 51.2°F10.7°C 80% Calm Calm 5.0 mph8.0 kmh 29.60 in1002.4 mb 0.00 in0.0 mm 0.00 in0.0 mm 0.00 in0.0 mm
02:54 AM 57.3°F14.1°C 51.2°F10.7°C 80% 1.0 mph W1.6 kmh W 10.0 mph16.1 kmh 29.61 in1002.7 mb 0.00 in0.0 mm 0.00 in0.0 mm 0.00 in0.0 mm
02:49 AM 57.3°F14.1°C 51.2°F10.7°C 80% 2.0 mph NNW3.2 kmh NNW 10.0 mph16.1 kmh 29.61 in1002.7 mb 0.00 in0.0 mm 0.00 in0.0 mm 0.00 in0.0 mm
02:44 AM 57.3°F14.1°C 50.8°F10.4°C 79% 2.0 mph WNW3.2 kmh WNW 10.0 mph16.1 kmh 29.61 in1002.7 mb 0.00 in0.0 mm 0.00 in0.0 mm 0.00 in0.0 mm
02:39 AM 57.5°F14.2°C 51.0°F10.6°C 79% 2.0 mph W3.2 kmh W 10.0 mph16.1 kmh 29.61 in1002.7 mb 0.00 in0.0 mm 0.00 in0.0 mm 0.00 in0.0 mm
02:34 AM 57.5°F14.2°C 51.0°F10.6°C 79% Calm Calm 9.0 mph14.5 kmh 29.61 in1002.7 mb 0.00 in0.0 mm 0.00 in0.0 mm 0.00 in0.0 mm
02:29 AM 57.5°F14.2°C 51.0°F10.6°C 79% 3.0 mph WNW4.8 kmh WNW 11.0 mph17.7 kmh 29.61 in1002.7 mb 0.00 in0.0 mm 0.00 in0.0 mm 0.00 in0.0 mm
02:24 AM 57.5°F14.2°C 51.0°F10.6°C 79% 1.0 mph W1.6 kmh W 11.0 mph17.7 kmh 29.61 in1002.7 mb 0.00 in0.0 mm 0.00 in0.0 mm 0.00 in0.0 mm
02:19 AM 57.5°F14.2°C 51.0°F10.6°C 79% 2.0 mph SW3.2 kmh SW 11.0 mph17.7 kmh 29.61 in1002.7 mb 0.00 in0.0 mm 0.00 in0.0 mm 0.00 in0.0 mm
02:14 AM 57.5°F14.2°C 51.0°F10.6°C 79% 2.0 mph W3.2 kmh W 11.0 mph17.7 kmh 29.61 in1002.7 mb 0.00 in0.0 mm 0.00 in0.0 mm 0.00 in0.0 mm
02:09 AM 57.5°F14.2°C 50.7°F10.4°C 78% 6.0 mph W9.7 kmh W 9.0 mph14.5 kmh 29.61 in1002.7 mb 0.00 in0.0 mm 0.00 in0.0 mm 0.00 in0.0 mm
02:04 AM 57.5°F14.2°C 50.7°F10.4°C 78% 3.0 mph WNW4.8 kmh WNW 9.0 mph14.5 kmh 29.61 in1002.7 mb 0.00 in0.0 mm 0.00 in0.0 mm 0.00 in0.0 mm
01:59 AM 57.5°F14.2°C 50.7°F10.4°C 78% Calm Calm 10.0 mph16.1 kmh 29.61 in1002.7 mb 0.00 in0.0 mm 0.00 in0.0 mm 0.00 in0.0 mm
01:54 AM 57.5°F14.2°C 50.7°F10.4°C 78% 3.0 mph WSW4.8 kmh WSW 10.0 mph16.1 kmh 29.61 in1002.7 mb 0.00 in0.0 mm 0.00 in0.0 mm 0.00 in0.0 mm
01:49 AM 57.6°F14.2°C 50.8°F10.4°C 78% 4.0 mph WSW6.4 kmh WSW 10.0 mph16.1 kmh 29.61 in1002.7 mb 0.00 in0.0 mm 0.00 in0.0 mm 0.00 in0.0 mm
01:44 AM 57.6°F14.2°C 50.8°F10.4°C 78% 4.0 mph W6.4 kmh W 10.0 mph16.1 kmh 29.61 in1002.7 mb 0.00 in0.0 mm 0.00 in0.0 mm 0.00 in0.0 mm
01:39 AM 57.6°F14.2°C 50.8°F10.4°C 78% 3.0 mph WNW4.8 kmh WNW 10.0 mph16.1 kmh 29.61 in1002.7 mb 0.00 in0.0 mm 0.00 in0.0 mm 0.00 in0.0 mm
01:34 AM 57.8°F14.3°C 51.0°F10.6°C 78% 3.0 mph WNW4.8 kmh WNW 10.0 mph16.1 kmh 29.61 in1002.7 mb 0.00 in0.0 mm 0.00 in0.0 mm 0.00 in0.0 mm
01:29 AM 57.8°F14.3°C 51.0°F10.6°C 78% 5.0 mph SW8.0 kmh SW 10.0 mph16.1 kmh 29.61 in1002.7 mb 0.00 in0.0 mm 0.00 in0.0 mm 0.00 in0.0 mm
01:24 AM 57.8°F14.3°C 51.0°F10.6°C 78% 4.0 mph W6.4 kmh W 10.0 mph16.1 kmh 29.61 in1002.7 mb 0.00 in0.0 mm 0.00 in0.0 mm 0.00 in0.0 mm
01:19 AM 58.0°F14.4°C 51.2°F10.7°C 78% 4.0 mph NW6.4 kmh NW 10.0 mph16.1 kmh 29.61 in1002.7 mb 0.00 in0.0 mm 0.00 in0.0 mm 0.00 in0.0 mm
01:14 AM 58.0°F14.4°C 50.8°F10.4°C 77% 1.0 mph W1.6 kmh W 10.0 mph16.1 kmh 29.62 in1003.0 mb 0.00 in0.0 mm 0.00 in0.0 mm 0.00 in0.0 mm
01:09 AM 58.0°F14.4°C 50.8°F10.4°C 77% 8.0 mph W12.9 kmh W 10.0 mph16.1 kmh 29.62 in1003.0 mb 0.00 in0.0 mm 0.00 in0.0 mm 0.00 in0.0 mm
01:04 AM 58.0°F14.4°C 50.8°F10.4°C 77% Calm Calm 10.0 mph16.1 kmh 29.62 in1003.0 mb 0.00 in0.0 mm 0.00 in0.0 mm 0.00 in0.0 mm
12:59 AM 58.0°F14.4°C 51.5°F10.8°C 79% 1.0 mph WSW1.6 kmh WSW 9.0 mph14.5 kmh 29.62 in1003.0 mb 0.00 in0.0 mm 0.00 in0.0 mm 0.00 in0.0 mm
12:54 AM 58.1°F14.5°C 50.9°F10.5°C 77% 4.0 mph 6.4 kmh 12.0 mph19.3 kmh 29.62 in1003.0 mb 0.00 in0.0 mm 0.00 in0.0 mm 0.00 in0.0 mm
12:49 AM 58.1°F14.5°C 50.9°F10.5°C 77% 4.0 mph NW6.4 kmh NW 12.0 mph19.3 kmh 29.62 in1003.0 mb 0.00 in0.0 mm 0.00 in0.0 mm 0.00 in0.0 mm
12:44 AM 58.1°F14.5°C 50.9°F10.5°C 77% 3.0 mph NW4.8 kmh NW 12.0 mph19.3 kmh 29.62 in1003.0 mb 0.00 in0.0 mm 0.00 in0.0 mm 0.00 in0.0 mm
12:39 AM 58.3°F14.6°C 51.1°F10.6°C 77% 4.0 mph W6.4 kmh W 12.0 mph19.3 kmh 29.63 in1003.4 mb 0.00 in0.0 mm 0.00 in0.0 mm 0.00 in0.0 mm
12:34 AM 58.3°F14.6°C 51.1°F10.6°C 77% 3.0 mph NW4.8 kmh NW 11.0 mph17.7 kmh 29.63 in1003.4 mb 0.00 in0.0 mm 0.00 in0.0 mm 0.00 in0.0 mm
12:29 AM 58.4°F14.7°C 51.2°F10.7°C 77% 4.0 mph NW6.4 kmh NW 11.0 mph17.7 kmh 29.63 in1003.4 mb 0.00 in0.0 mm 0.00 in0.0 mm 0.00 in0.0 mm
12:24 AM 58.4°F14.7°C 51.2°F10.7°C 77% 4.0 mph SW6.4 kmh SW 11.0 mph17.7 kmh 29.63 in1003.4 mb 0.00 in0.0 mm 0.00 in0.0 mm 0.00 in0.0 mm
12:19 AM 58.4°F14.7°C 51.2°F10.7°C 77% 2.0 mph NNW3.2 kmh NNW 11.0 mph17.7 kmh 29.63 in1003.4 mb 0.00 in0.0 mm 0.00 in0.0 mm 0.00 in0.0 mm
12:14 AM 58.6°F14.8°C 51.4°F10.8°C 77% 5.0 mph W8.0 kmh W 13.0 mph20.9 kmh 29.63 in1003.4 mb 0.00 in0.0 mm 0.00 in0.0 mm 0.00 in0.0 mm
12:09 AM 58.6°F14.8°C 51.4°F10.8°C 77% 9.0 mph W14.5 kmh W 13.0 mph20.9 kmh 29.64 in1003.7 mb 0.00 in0.0 mm 0.00 in0.0 mm 0.00 in0.0 mm
12:04 AM 58.0°F14.4°C 52.9°F11.6°C 83% 6.0 mph ESE9.7 kmh ESE 13.0 mph20.9 kmh 29.64 in1003.7 mb 0.00 in0.0 mm 0.00 in0.0 mm 0.00 in0.0 mm